Time;durP1;ratioP1;P1;durP2;ratioP2;P2;SDS_P1;SDS_P2;PMS_P1;PMS_P2;Temp;Humidity;BMP_temperature;BMP_pressure;BME280_temperature;BME280_humidity;BME280_pressure;Samples;Min_cycle;Max_cycle;Signal;HPM_P1;HPM_P2
2024/03/22 00:00:38;;;;;;;39.20;27.37;;;5.80;99.90;;;;;;4992402;28;20026;-85
2024/03/22 00:03:04;;;;;;;35.70;26.23;;;5.80;99.90;;;;;;4992786;28;20038;-84
2024/03/22 00:05:30;;;;;;;40.63;27.33;;;5.80;99.90;;;;;;4992371;28;20034;-84
2024/03/22 00:07:55;;;;;;;40.77;26.20;;;5.80;99.90;;;;;;4992440;28;20037;-84
2024/03/22 00:10:22;;;;;;;41.17;28.20;;;5.80;99.90;;;;;;4992883;28;20096;-84
2024/03/22 00:12:49;;;;;;;40.63;25.13;;;5.80;99.90;;;;;;4992259;28;20559;-84
2024/03/22 00:15:14;;;;;;;38.83;24.47;;;5.80;99.90;;;;;;4991072;28;20053;-85
2024/03/22 00:17:40;;;;;;;35.23;24.87;;;5.80;99.90;;;;;;4995896;28;20065;-83
2024/03/22 00:20:06;;;;;;;39.17;25.43;;;5.80;99.90;;;;;;4993901;28;20053;-84
2024/03/22 00:22:32;;;;;;;36.30;24.07;;;5.80;99.90;;;;;;4992726;28;20026;-84
2024/03/22 00:24:57;;;;;;;34.97;24.27;;;5.80;99.90;;;;;;4991945;28;20113;-84
2024/03/22 00:27:23;;;;;;;39.77;24.57;;;5.80;99.90;;;;;;4992773;28;20040;-84
2024/03/22 00:29:48;;;;;;;39.13;25.30;;;5.80;99.90;;;;;;4992735;28;20026;-86
2024/03/22 00:32:14;;;;;;;38.97;24.13;;;5.80;99.90;;;;;;4989981;28;20048;-84
2024/03/22 00:34:39;;;;;;;35.20;24.13;;;5.80;99.90;;;;;;4990180;28;20160;-84
2024/03/22 00:37:05;;;;;;;37.90;24.80;;;5.80;99.90;;;;;;4989145;28;20038;-84
2024/03/22 00:39:30;;;;;;;32.63;23.63;;;5.80;99.90;;;;;;4988748;28;20106;-85
2024/03/22 00:41:56;;;;;;;38.03;24.53;;;5.70;99.90;;;;;;4988437;28;20030;-84
2024/03/22 00:44:24;;;;;;;34.07;23.60;;;5.70;99.90;;;;;;4988559;28;20475;-84
2024/03/22 00:46:53;;;;;;;36.17;24.13;;;5.70;99.90;;;;;;4988351;28;20022;-84
2024/03/22 00:49:18;;;;;;;35.43;24.80;;;5.70;99.90;;;;;;4988596;28;20034;-84
2024/03/22 00:51:44;;;;;;;40.13;25.73;;;5.70;99.90;;;;;;4988280;28;20057;-84
2024/03/22 00:54:10;;;;;;;39.30;26.90;;;5.60;99.90;;;;;;4988723;28;21250;-84
2024/03/22 00:56:36;;;;;;;46.00;28.43;;;5.60;99.90;;;;;;4988228;28;20026;-84
2024/03/22 00:59:02;;;;;;;44.70;30.87;;;5.50;99.90;;;;;;4988663;28;20069;-85
2024/03/22 01:01:27;;;;;;;40.20;26.87;;;5.50;99.90;;;;;;4988792;28;20048;-84
2024/03/22 01:03:53;;;;;;;32.73;23.93;;;5.40;99.90;;;;;;4988254;28;20080;-85
2024/03/22 01:06:23;;;;;;;31.70;22.67;;;5.40;99.90;;;;;;4988226;28;20089;-84
2024/03/22 01:08:49;;;;;;;31.60;22.07;;;5.30;99.90;;;;;;4988642;28;20034;-84
2024/03/22 01:11:14;;;;;;;30.47;21.53;;;5.30;99.90;;;;;;4988914;28;21516;-84
2024/03/22 01:13:40;;;;;;;35.73;22.40;;;5.30;99.90;;;;;;4988512;28;20484;-84
2024/03/22 01:16:08;;;;;;;33.13;21.53;;;5.20;99.90;;;;;;4987425;28;20030;-84
2024/03/22 01:18:33;;;;;;;32.47;22.37;;;5.20;99.90;;;;;;4988632;28;20026;-84
2024/03/22 01:20:59;;;;;;;32.77;22.43;;;5.10;99.90;;;;;;4989122;28;20022;-84
2024/03/22 01:23:24;;;;;;;34.87;24.13;;;5.10;99.90;;;;;;4987920;28;20578;-84
2024/03/22 01:25:50;;;;;;;34.80;24.00;;;5.10;99.90;;;;;;4987607;28;20092;-84
2024/03/22 01:28:15;;;;;;;40.47;27.40;;;5.10;99.90;;;;;;4987705;28;20112;-84
2024/03/22 01:30:43;;;;;;;49.63;34.07;;;5.10;99.90;;;;;;4988432;28;20027;-85
2024/03/22 01:33:08;;;;;;;47.17;33.00;;;5.00;99.90;;;;;;4989012;28;20026;-84
2024/03/22 01:35:34;;;;;;;48.83;32.13;;;5.00;99.90;;;;;;4987520;28;20058;-84
2024/03/22 01:37:59;;;;;;;41.63;29.03;;;5.00;99.90;;;;;;5003227;28;21409;-85
2024/03/22 01:40:25;;;;;;;42.77;27.13;;;5.00;99.90;;;;;;4988388;28;20027;-84
2024/03/22 01:42:56;;;;;;;38.70;25.00;;;5.00;99.90;;;;;;4988122;28;20446;-84
2024/03/22 01:45:24;;;;;;;42.17;25.20;;;5.00;99.90;;;;;;4988060;28;20037;-84
2024/03/22 01:47:56;;;;;;;39.40;24.37;;;4.90;99.90;;;;;;4988712;28;20023;-85
2024/03/22 01:50:22;;;;;;;36.57;22.97;;;4.90;99.90;;;;;;4987924;28;20113;-85
2024/03/22 01:52:48;;;;;;;35.50;23.63;;;4.90;99.90;;;;;;4985442;28;20455;-85
2024/03/22 01:55:14;;;;;;;37.30;25.07;;;4.90;99.90;;;;;;4987045;28;20838;-84
2024/03/22 01:57:40;;;;;;;36.77;23.50;;;4.90;99.90;;;;;;4987367;28;20141;-84
2024/03/22 02:00:08;;;;;;;34.33;22.37;;;4.80;99.90;;;;;;4988136;28;20028;-84
2024/03/22 02:02:34;;;;;;;33.40;23.50;;;4.80;99.90;;;;;;4987531;28;20719;-84
2024/03/22 02:04:59;;;;;;;36.03;24.23;;;4.80;99.90;;;;;;4987283;28;20030;-84
2024/03/22 02:07:30;;;;;;;37.83;23.10;;;4.80;99.90;;;;;;4987641;28;20026;-84
2024/03/22 02:09:55;;;;;;;34.67;23.43;;;4.80;99.90;;;;;;4988979;28;20101;-84
2024/03/22 02:12:21;;;;;;;36.57;24.17;;;4.80;99.90;;;;;;4990248;28;20459;-84
2024/03/22 02:14:46;;;;;;;36.13;25.00;;;4.70;99.90;;;;;;4987245;28;20114;-84
2024/03/22 02:17:12;;;;;;;38.13;23.53;;;4.70;99.90;;;;;;4986346;28;20045;-86
2024/03/22 02:19:37;;;;;;;36.20;23.37;;;4.70;99.90;;;;;;4987996;28;20483;-84
2024/03/22 02:22:03;;;;;;;34.40;22.20;;;4.70;99.90;;;;;;4988459;28;20105;-83
2024/03/22 02:24:28;;;;;;;37.37;23.90;;;4.60;99.90;;;;;;4987393;28;20475;-85
2024/03/22 02:26:54;;;;;;;33.87;23.13;;;4.60;99.90;;;;;;4986124;28;20052;-84
2024/03/22 02:29:19;;;;;;;32.80;22.87;;;4.60;99.90;;;;;;4986627;28;20580;-84
2024/03/22 02:31:45;;;;;;;36.27;24.30;;;4.60;99.90;;;;;;4986787;28;20022;-84
2024/03/22 02:34:10;;;;;;;36.03;22.57;;;4.60;99.90;;;;;;4987591;28;20674;-84
2024/03/22 02:36:36;;;;;;;35.97;22.70;;;4.50;99.90;;;;;;4984585;28;20483;-84
2024/03/22 02:39:01;;;;;;;35.50;23.00;;;4.50;99.90;;;;;;4987234;28;20058;-84
2024/03/22 02:41:27;;;;;;;33.07;22.23;;;4.50;99.90;;;;;;4986838;28;20035;-84
2024/03/22 02:43:52;;;;;;;34.60;23.57;;;4.50;99.90;;;;;;4986279;28;20061;-84
2024/03/22 02:46:18;;;;;;;33.80;22.70;;;4.50;99.90;;;;;;4987024;28;20106;-84
2024/03/22 02:48:43;;;;;;;30.47;21.77;;;4.50;99.90;;;;;;4986991;28;20065;-84
2024/03/22 02:51:09;;;;;;;34.20;23.23;;;4.50;99.90;;;;;;4986003;28;20033;-84
2024/03/22 02:53:34;;;;;;;36.63;23.97;;;4.40;99.90;;;;;;4987200;28;20023;-84
2024/03/22 02:56:00;;;;;;;35.83;22.70;;;4.40;99.90;;;;;;4986326;28;21235;-83
2024/03/22 02:58:26;;;;;;;33.20;21.77;;;4.40;99.90;;;;;;4987784;28;20034;-85
2024/03/22 03:00:52;;;;;;;32.77;22.67;;;4.40;99.90;;;;;;4987291;28;20089;-83
2024/03/22 03:03:17;;;;;;;34.50;22.03;;;4.30;99.90;;;;;;4988863;28;20030;-84
2024/03/22 03:05:44;;;;;;;33.03;21.90;;;4.30;99.90;;;;;;4988783;28;20482;-84
2024/03/22 03:08:09;;;;;;;34.63;21.87;;;4.30;99.90;;;;;;4990049;28;20022;-84
2024/03/22 03:10:35;;;;;;;32.93;21.80;;;4.30;99.90;;;;;;4988076;28;20532;-84
2024/03/22 03:13:00;;;;;;;35.70;21.43;;;4.30;99.90;;;;;;4986763;28;20122;-84
2024/03/22 03:15:26;;;;;;;31.33;21.33;;;4.30;99.90;;;;;;4985900;28;20038;-84
2024/03/22 03:17:52;;;;;;;33.20;21.20;;;4.30;99.90;;;;;;4986543;28;20022;-84
2024/03/22 03:20:17;;;;;;;30.03;21.37;;;4.30;99.90;;;;;;4986942;28;20030;-84
2024/03/22 03:22:43;;;;;;;35.17;21.47;;;4.20;99.90;;;;;;4986083;28;20117;-83
2024/03/22 03:25:09;;;;;;;29.27;20.07;;;4.20;99.90;;;;;;4985789;28;20022;-85
2024/03/22 03:27:35;;;;;;;28.93;19.80;;;4.20;99.90;;;;;;4986303;28;20085;-84
2024/03/22 03:30:01;;;;;;;31.27;20.53;;;4.20;99.90;;;;;;4985570;28;20062;-83
2024/03/22 03:32:27;;;;;;;31.80;20.37;;;4.20;99.90;;;;;;4985461;28;20510;-83
2024/03/22 03:34:53;;;;;;;31.53;20.97;;;4.20;99.90;;;;;;5000871;28;20061;-84
2024/03/22 03:37:19;;;;;;;29.77;19.87;;;4.20;99.90;;;;;;4985253;28;20470;-84
2024/03/22 03:39:44;;;;;;;30.57;20.77;;;4.10;99.90;;;;;;4985643;28;20058;-84
2024/03/22 03:42:10;;;;;;;37.70;21.10;;;4.10;99.90;;;;;;4984619;28;20406;-84
2024/03/22 03:44:36;;;;;;;32.23;19.83;;;4.10;99.90;;;;;;4985555;28;20025;-84
2024/03/22 03:47:02;;;;;;;27.23;19.07;;;4.10;99.90;;;;;;4985334;28;20026;-84
2024/03/22 03:49:28;;;;;;;30.03;19.70;;;4.10;99.90;;;;;;4985727;28;20447;-84
2024/03/22 03:51:53;;;;;;;30.97;19.67;;;4.00;99.90;;;;;;4984387;28;20038;-83
2024/03/22 03:54:19;;;;;;;28.53;18.70;;;4.00;99.90;;;;;;4984325;28;20108;-84
2024/03/22 03:56:44;;;;;;;30.87;18.77;;;4.00;99.90;;;;;;4984985;28;20100;-84
2024/03/22 03:59:10;;;;;;;31.90;17.93;;;4.00;99.90;;;;;;4986470;28;20113;-84
2024/03/22 04:01:36;;;;;;;27.50;18.30;;;4.00;99.90;;;;;;4985223;28;20027;-84
2024/03/22 04:04:02;;;;;;;28.37;17.90;;;4.00;99.90;;;;;;4989027;28;20030;-84
2024/03/22 04:06:28;;;;;;;25.53;17.07;;;4.00;99.90;;;;;;4990219;28;20124;-83
2024/03/22 04:08:54;;;;;;;24.07;16.43;;;4.00;99.90;;;;;;4989734;28;20050;-83
2024/03/22 04:11:19;;;;;;;24.73;17.87;;;4.10;99.90;;;;;;4989183;28;20121;-84
2024/03/22 04:13:45;;;;;;;28.80;17.57;;;4.10;99.90;;;;;;4988552;28;20029;-84
2024/03/22 04:16:10;;;;;;;23.37;16.47;;;4.20;99.90;;;;;;4987430;28;20050;-84
2024/03/22 04:18:36;;;;;;;25.43;16.20;;;4.20;99.90;;;;;;4988475;28;20027;-84
2024/03/22 04:21:02;;;;;;;23.90;16.50;;;4.20;99.90;;;;;;4988983;28;20042;-84
2024/03/22 04:23:27;;;;;;;25.17;16.10;;;4.20;99.90;;;;;;4988859;28;20065;-85
2024/03/22 04:26:00;;;;;;;22.03;15.73;;;4.20;99.90;;;;;;4988177;28;20092;-84
2024/03/22 04:28:26;;;;;;;23.40;15.67;;;4.20;99.90;;;;;;4988315;28;20044;-84
2024/03/22 04:30:56;;;;;;;22.03;15.40;;;4.20;99.90;;;;;;4989160;28;20483;-84
2024/03/22 04:33:21;;;;;;;23.73;15.20;;;4.20;99.90;;;;;;4988723;28;20084;-85
2024/03/22 04:35:47;;;;;;;22.83;14.83;;;4.20;99.90;;;;;;4987224;28;20367;-84
2024/03/22 04:38:12;;;;;;;25.70;16.37;;;4.20;99.90;;;;;;4988538;28;20033;-83
2024/03/22 04:40:39;;;;;;;22.23;15.50;;;4.10;99.90;;;;;;4988213;28;20030;-84
2024/03/22 04:43:04;;;;;;;25.60;15.60;;;4.10;99.90;;;;;;4988017;28;20018;-84
2024/03/22 04:45:30;;;;;;;25.03;15.37;;;4.10;99.90;;;;;;4987888;28;20351;-84
2024/03/22 04:47:55;;;;;;;23.17;14.53;;;4.10;99.90;;;;;;4987631;28;20493;-83
2024/03/22 04:50:21;;;;;;;22.30;15.13;;;4.00;99.90;;;;;;4987924;28;20037;-84
2024/03/22 04:52:46;;;;;;;22.97;15.40;;;4.00;99.90;;;;;;4987852;28;20037;-85
2024/03/22 04:55:12;;;;;;;23.43;16.63;;;4.00;99.90;;;;;;4986820;28;20045;-84
2024/03/22 04:57:37;;;;;;;28.80;19.07;;;3.90;99.90;;;;;;5003276;28;20033;-84
2024/03/22 05:00:04;;;;;;;31.27;20.20;;;3.90;99.90;;;;;;4988174;28;20026;-84
2024/03/22 05:02:29;;;;;;;35.77;22.77;;;4.00;99.90;;;;;;4987949;28;20107;-84
2024/03/22 05:04:55;;;;;;;35.47;22.80;;;4.00;99.90;;;;;;4986293;28;20038;-83
2024/03/22 05:07:21;;;;;;;38.23;22.40;;;4.00;99.90;;;;;;4988445;28;20395;-83
2024/03/22 05:09:46;;;;;;;38.50;22.60;;;4.10;99.90;;;;;;4988185;28;20121;-84
2024/03/22 05:12:12;;;;;;;35.37;22.43;;;4.20;99.90;;;;;;4988144;28;21360;-83
2024/03/22 05:14:37;;;;;;;34.13;22.17;;;4.20;99.90;;;;;;4987856;28;20236;-84
2024/03/22 05:17:03;;;;;;;39.17;24.60;;;4.30;99.90;;;;;;4987443;28;20112;-84
2024/03/22 05:19:28;;;;;;;34.37;23.13;;;4.30;99.90;;;;;;4987651;28;20022;-84
2024/03/22 05:21:54;;;;;;;38.20;23.30;;;4.40;99.90;;;;;;4989561;28;21140;-83
2024/03/22 05:24:19;;;;;;;34.97;22.30;;;4.50;99.90;;;;;;4992470;28;20375;-84
2024/03/22 05:26:45;;;;;;;36.80;22.60;;;4.50;99.90;;;;;;4994508;28;20031;-86
2024/03/22 05:29:11;;;;;;;34.20;21.80;;;4.60;99.90;;;;;;4994757;28;20038;-84
2024/03/22 05:31:47;;;;;;;34.53;22.57;;;4.70;99.90;;;;;;4994329;28;20086;-85
2024/03/22 05:34:14;;;;;;;36.73;23.67;;;4.70;99.90;;;;;;4995351;28;20022;-85
2024/03/22 05:36:40;;;;;;;32.73;22.83;;;4.80;99.90;;;;;;4994340;28;20066;-84
2024/03/22 05:39:05;;;;;;;38.87;24.03;;;4.90;99.90;;;;;;4993670;28;20038;-84
2024/03/22 05:41:31;;;;;;;37.00;24.30;;;4.90;99.90;;;;;;4994669;28;20030;-84
2024/03/22 05:43:56;;;;;;;34.60;23.30;;;5.00;99.90;;;;;;4993561;28;20354;-85
2024/03/22 05:46:22;;;;;;;34.63;22.67;;;5.10;99.90;;;;;;4992920;28;20030;-84
2024/03/22 05:48:49;;;;;;;33.43;22.83;;;5.10;99.90;;;;;;4993120;28;20034;-84
2024/03/22 05:51:15;;;;;;;32.97;22.57;;;5.20;99.90;;;;;;4995252;28;20022;-86
2024/03/22 05:53:41;;;;;;;35.70;22.33;;;5.20;99.90;;;;;;4989897;28;20034;-84
2024/03/22 05:56:07;;;;;;;36.87;23.87;;;5.30;99.90;;;;;;4992987;28;20094;-85
2024/03/22 05:58:33;;;;;;;37.17;21.87;;;5.30;99.90;;;;;;4983468;28;20861;-86
2024/03/22 06:00:58;;;;;;;32.83;22.40;;;5.40;99.90;;;;;;4988579;28;20049;-85
2024/03/22 06:03:24;;;;;;;33.50;22.00;;;5.40;99.90;;;;;;4991027;28;20038;-85
2024/03/22 06:05:49;;;;;;;31.37;21.27;;;5.40;99.90;;;;;;4992024;28;20043;-85
2024/03/22 06:08:18;;;;;;;32.43;21.37;;;5.40;99.90;;;;;;4989725;28;20046;-86
2024/03/22 06:10:45;;;;;;;29.90;19.40;;;5.40;99.90;;;;;;4991946;28;20037;-86
2024/03/22 06:13:10;;;;;;;29.57;19.37;;;5.40;99.90;;;;;;4992946;28;20114;-84
2024/03/22 06:15:36;;;;;;;35.73;20.17;;;5.40;99.90;;;;;;4988611;28;20512;-85
2024/03/22 06:18:02;;;;;;;30.80;18.30;;;5.30;99.90;;;;;;4991385;28;20058;-85
2024/03/22 06:20:27;;;;;;;26.27;18.53;;;5.20;99.90;;;;;;4989591;28;20143;-87
2024/03/22 06:22:53;;;;;;;31.27;19.73;;;5.10;99.90;;;;;;4993282;28;20022;-85
2024/03/22 06:25:18;;;;;;;28.10;18.43;;;5.10;99.90;;;;;;4992166;28;20037;-85
2024/03/22 06:27:44;;;;;;;27.73;18.70;;;5.00;99.90;;;;;;4989694;28;20232;-83
2024/03/22 06:30:10;;;;;;;28.10;19.03;;;5.00;99.90;;;;;;4991167;28;20565;-85
2024/03/22 06:32:35;;;;;;;29.37;19.60;;;5.00;99.90;;;;;;4989078;28;20033;-85
2024/03/22 06:35:01;;;;;;;29.90;18.90;;;5.10;99.90;;;;;;4989784;28;20042;-85
2024/03/22 06:37:26;;;;;;;30.07;20.13;;;5.10;99.90;;;;;;4992075;28;20038;-84
2024/03/22 06:39:52;;;;;;;28.53;19.23;;;5.20;99.90;;;;;;4992766;28;20042;-85
2024/03/22 06:42:17;;;;;;;31.17;21.03;;;5.30;99.90;;;;;;4992166;28;20897;-86
2024/03/22 06:44:43;;;;;;;30.00;20.50;;;5.30;99.90;;;;;;4991609;28;20513;-84
2024/03/22 06:47:08;;;;;;;33.53;21.43;;;5.40;99.90;;;;;;4988578;28;20041;-85
2024/03/22 06:49:34;;;;;;;33.73;21.37;;;5.50;99.90;;;;;;4988865;28;20033;-84
2024/03/22 06:51:59;;;;;;;34.27;22.20;;;5.60;99.90;;;;;;4989113;28;20041;-86
2024/03/22 06:54:26;;;;;;;34.63;21.20;;;5.80;99.90;;;;;;4988132;28;20088;-85
2024/03/22 06:56:52;;;;;;;30.57;21.67;;;5.90;99.90;;;;;;4989499;28;20113;-87
2024/03/22 06:59:17;;;;;;;32.50;20.83;;;6.00;99.90;;;;;;4988908;28;20138;-84
2024/03/22 07:01:43;;;;;;;33.40;20.73;;;6.10;99.90;;;;;;4987199;28;20041;-85
2024/03/22 07:04:08;;;;;;;34.00;21.47;;;6.20;99.90;;;;;;4988157;28;20022;-85
2024/03/22 07:06:34;;;;;;;30.77;21.40;;;6.40;99.90;;;;;;4985244;28;21720;-85
2024/03/22 07:09:00;;;;;;;26.03;19.27;;;6.50;99.90;;;;;;4985624;28;20112;-84
2024/03/22 07:11:25;;;;;;;29.57;19.63;;;6.70;99.90;;;;;;4987771;28;20057;-84
2024/03/22 07:13:51;;;;;;;26.30;18.50;;;6.80;99.90;;;;;;4986654;28;20030;-85
2024/03/22 07:16:16;;;;;;;31.37;19.27;;;7.00;99.90;;;;;;4984635;28;20173;-85
2024/03/22 07:18:42;;;;;;;29.80;19.27;;;7.10;99.90;;;;;;4984937;28;20066;-85
2024/03/22 07:21:07;;;;;;;27.53;19.30;;;7.20;99.90;;;;;;4986830;28;20041;-85
2024/03/22 07:23:33;;;;;;;25.17;18.57;;;7.30;99.90;;;;;;4986904;28;20058;-85
2024/03/22 07:25:59;;;;;;;24.77;17.80;;;7.50;99.90;;;;;;4985074;28;20029;-84
2024/03/22 07:28:25;;;;;;;24.93;18.27;;;7.60;99.90;;;;;;4984078;28;20215;-85
2024/03/22 07:30:50;;;;;;;27.83;17.33;;;7.70;99.90;;;;;;4985504;28;20042;-85
2024/03/22 07:33:19;;;;;;;27.17;17.00;;;7.80;99.90;;;;;;4985108;28;20364;-85
2024/03/22 07:35:44;;;;;;;32.23;18.80;;;7.90;99.90;;;;;;4985827;28;20157;-85
2024/03/22 07:38:10;;;;;;;26.87;17.20;;;7.90;99.90;;;;;;4986183;28;20057;-85
2024/03/22 07:40:36;;;;;;;19.67;16.07;;;8.10;99.90;;;;;;4983842;28;20050;-85
2024/03/22 07:43:05;;;;;;;28.13;17.60;;;8.20;99.90;;;;;;4988832;28;20043;-85
2024/03/22 07:45:32;;;;;;;24.83;16.70;;;8.30;99.90;;;;;;4989903;28;20518;-85
2024/03/22 07:47:57;;;;;;;24.07;16.93;;;8.40;99.90;;;;;;4989998;28;20037;-85
2024/03/22 07:50:23;;;;;;;24.77;16.03;;;8.60;99.90;;;;;;4988985;28;20015;-85
2024/03/22 07:52:48;;;;;;;22.30;15.53;;;8.60;99.90;;;;;;4990448;28;20150;-85
2024/03/22 07:55:14;;;;;;;21.57;14.90;;;8.70;99.90;;;;;;4990534;28;20876;-85
2024/03/22 07:57:39;;;;;;;21.07;14.70;;;8.80;99.90;;;;;;4989900;28;20026;-85
2024/03/22 08:00:07;;;;;;;22.63;14.67;;;8.90;99.90;;;;;;4990810;28;20121;-85
2024/03/22 08:02:32;;;;;;;18.60;13.17;;;9.10;99.90;;;;;;4988895;28;20042;-85
2024/03/22 08:04:58;;;;;;;21.33;13.23;;;9.20;99.90;;;;;;4989517;28;20022;-85
2024/03/22 08:07:23;;;;;;;17.13;12.83;;;9.40;99.90;;;;;;4989119;28;20038;-85
2024/03/22 08:09:49;;;;;;;21.17;11.87;;;9.40;99.90;;;;;;4990234;28;20041;-85
2024/03/22 08:12:14;;;;;;;19.37;12.77;;;9.50;99.90;;;;;;4990050;28;20037;-85
2024/03/22 08:14:40;;;;;;;22.37;12.03;;;9.70;99.90;;;;;;4990204;28;20050;-87
2024/03/22 08:17:09;;;;;;;18.33;12.13;;;9.80;99.90;;;;;;4987213;28;20798;-85
2024/03/22 08:19:35;;;;;;;16.53;11.47;;;10.10;99.90;;;;;;4989686;28;20041;-85
2024/03/22 08:22:00;;;;;;;18.30;10.10;;;10.30;99.90;;;;;;4990093;28;20026;-85
2024/03/22 08:24:26;;;;;;;16.13;9.93;;;10.50;99.90;;;;;;4991779;28;20030;-85
2024/03/22 08:26:51;;;;;;;14.53;9.57;;;10.70;99.90;;;;;;4992408;28;20037;-85
2024/03/22 08:29:17;;;;;;;17.63;9.18;;;10.90;99.90;;;;;;4991715;28;20049;-86
2024/03/22 08:31:42;;;;;;;15.52;8.18;;;11.10;99.90;;;;;;4991361;28;20781;-85
2024/03/22 08:34:08;;;;;;;10.23;8.32;;;11.20;99.90;;;;;;4989462;28;20650;-86
2024/03/22 08:36:34;;;;;;;12.30;8.52;;;11.40;99.90;;;;;;4991465;28;20065;-86
2024/03/22 08:39:00;;;;;;;11.77;7.85;;;11.60;99.90;;;;;;4991358;28;20595;-86
2024/03/22 08:41:25;;;;;;;13.00;7.55;;;11.70;99.90;;;;;;4991381;28;20041;-85
2024/03/22 08:43:51;;;;;;;11.13;7.72;;;11.70;99.90;;;;;;4990537;28;20030;-85
2024/03/22 08:46:16;;;;;;;15.07;6.65;;;11.80;99.90;;;;;;4990165;28;20099;-86
2024/03/22 08:48:42;;;;;;;11.32;7.38;;;11.90;99.90;;;;;;4990722;28;20085;-85
2024/03/22 08:51:07;;;;;;;11.23;7.75;;;11.90;99.90;;;;;;4990280;28;20443;-86
2024/03/22 08:53:33;;;;;;;10.05;6.78;;;12.00;99.90;;;;;;4989550;28;20027;-86
2024/03/22 08:55:58;;;;;;;9.80;5.78;;;12.10;99.90;;;;;;4989351;28;20566;-85
2024/03/22 08:58:24;;;;;;;8.73;5.70;;;12.30;99.90;;;;;;4991283;28;20157;-85
2024/03/22 09:00:49;;;;;;;12.40;6.80;;;12.50;99.90;;;;;;4989746;28;21506;-85
2024/03/22 09:03:15;;;;;;;11.50;6.00;;;12.70;99.90;;;;;;4989732;28;20046;-86
2024/03/22 09:05:41;;;;;;;8.75;6.28;;;13.00;99.90;;;;;;4989970;28;20503;-85
2024/03/22 09:08:06;;;;;;;9.70;5.80;;;13.10;99.90;;;;;;4989724;28;20141;-85
2024/03/22 09:10:32;;;;;;;8.45;5.72;;;13.20;99.90;;;;;;4990212;28;20022;-85
2024/03/22 09:12:58;;;;;;;9.45;6.07;;;13.20;99.90;;;;;;4988770;28;20026;-85
2024/03/22 09:15:24;;;;;;;9.35;6.18;;;13.20;99.90;;;;;;4994173;28;20053;-86
2024/03/22 09:17:51;;;;;;;9.30;5.78;;;13.20;99.90;;;;;;4999623;28;20026;-86
2024/03/22 09:20:16;;;;;;;9.82;6.10;;;13.10;99.90;;;;;;5001388;28;20026;-86
2024/03/22 09:22:42;;;;;;;12.85;5.60;;;13.10;99.90;;;;;;5000368;28;20037;-86
2024/03/22 09:25:08;;;;;;;10.40;5.35;;;13.30;99.90;;;;;;5000175;28;20038;-86
2024/03/22 09:27:33;;;;;;;9.77;5.93;;;13.40;99.90;;;;;;5000989;28;20073;-87
2024/03/22 09:30:01;;;;;;;6.43;4.90;;;13.60;99.90;;;;;;5000929;28;20062;-87
2024/03/22 09:32:26;;;;;;;8.55;5.25;;;13.70;99.90;;;;;;4999317;28;20106;-87
2024/03/22 09:34:52;;;;;;;9.13;5.80;;;13.80;99.90;;;;;;4999356;28;20116;-86
2024/03/22 09:37:17;;;;;;;8.75;5.30;;;14.00;99.90;;;;;;4999995;28;20058;-86
2024/03/22 09:39:44;;;;;;;12.68;5.60;;;14.20;99.90;;;;;;5000218;28;20026;-87
2024/03/22 09:42:17;;;;;;;10.70;6.07;;;14.50;99.90;;;;;;4990137;28;20113;-87
2024/03/22 09:44:48;;;;;;;9.32;5.45;;;14.60;99.90;;;;;;4981549;28;20045;-87
2024/03/22 09:47:21;;;;;;;10.60;5.72;;;14.70;99.90;;;;;;4976839;28;21020;-87
2024/03/22 09:49:48;;;;;;;8.90;5.38;;;14.80;99.90;;;;;;4979797;28;20460;-87
2024/03/22 09:52:15;;;;;;;8.55;5.65;;;14.80;99.90;;;;;;4979119;28;20114;-87
2024/03/22 09:54:44;;;;;;;8.98;5.50;;;14.90;99.90;;;;;;4978435;28;20109;-88
2024/03/22 09:57:18;;;;;;;9.85;5.32;;;15.00;99.90;;;;;;4977614;28;20513;-87
2024/03/22 09:59:45;;;;;;;6.55;5.30;;;15.10;99.90;;;;;;4980259;28;20517;-87
2024/03/22 10:02:12;;;;;;;6.95;5.18;;;15.10;99.90;;;;;;4979488;28;20043;-88
2024/03/22 10:04:38;;;;;;;13.40;5.45;;;15.30;99.90;;;;;;4980376;28;20026;-87
2024/03/22 10:07:04;;;;;;;7.53;5.10;;;15.30;99.90;;;;;;4980191;28;20109;-88
2024/03/22 10:09:30;;;;;;;11.13;4.50;;;15.40;99.90;;;;;;4981023;28;20100;-87
2024/03/22 10:11:57;;;;;;;8.10;5.28;;;15.40;99.90;;;;;;4981849;28;20049;-88
2024/03/22 10:14:25;;;;;;;8.98;5.20;;;15.60;99.90;;;;;;4983104;28;20034;-87
2024/03/22 10:16:54;;;;;;;8.10;5.47;;;15.70;99.90;;;;;;4983775;28;20046;-88
2024/03/22 10:19:23;;;;;;;9.30;5.00;;;15.80;99.90;;;;;;4983773;28;20038;-88
2024/03/22 10:22:08;;;;;;;9.98;5.40;;;15.80;99.90;;;;;;4979025;28;20041;-87
2024/03/22 10:24:33;;;;;;;9.68;4.95;;;15.80;99.90;;;;;;4979223;28;20034;-87
2024/03/22 10:27:00;;;;;;;11.77;5.50;;;15.80;99.90;;;;;;4976707;28;20102;-87
2024/03/22 10:29:25;;;;;;;8.57;5.00;;;15.90;99.90;;;;;;4979436;28;20113;-88
2024/03/22 10:31:55;;;;;;;11.07;5.15;;;16.00;99.90;;;;;;4979816;28;20034;-88
2024/03/22 10:34:21;;;;;;;10.50;5.43;;;16.00;99.90;;;;;;4978823;28;20113;-87
2024/03/22 10:36:47;;;;;;;7.97;4.90;;;16.10;99.90;;;;;;4979175;28;20035;-87
2024/03/22 10:39:19;;;;;;;9.30;5.75;;;16.20;99.90;;;;;;4980094;28;20134;-87
2024/03/22 10:41:48;;;;;;;7.50;4.68;;;16.30;99.90;;;;;;4979552;28;20806;-87
2024/03/22 10:44:14;;;;;;;8.85;4.68;;;16.30;99.90;;;;;;4979874;28;20023;-87
2024/03/22 10:46:48;;;;;;;9.98;5.03;;;16.30;99.90;;;;;;4979254;28;20027;-87
2024/03/22 10:49:20;;;;;;;10.43;5.10;;;16.30;99.90;;;;;;4978745;28;20553;-88
2024/03/22 10:51:54;;;;;;;9.18;5.25;;;16.40;99.90;;;;;;4979810;28;20371;-87
2024/03/22 10:54:22;;;;;;;8.68;5.03;;;16.40;99.90;;;;;;4979625;28;20036;-88
2024/03/22 10:56:49;;;;;;;9.73;5.40;;;16.40;99.90;;;;;;4979291;28;20034;-88
2024/03/22 10:59:19;;;;;;;9.85;4.88;;;16.20;99.90;;;;;;4979426;28;20028;-87
2024/03/22 11:01:46;;;;;;;10.38;5.55;;;16.00;99.90;;;;;;4979182;28;20585;-87
2024/03/22 11:04:12;;;;;;;7.80;5.05;;;16.10;99.90;;;;;;4979926;28;20092;-88
2024/03/22 11:06:37;;;;;;;9.23;4.80;;;16.10;99.90;;;;;;4979635;28;20034;-88
2024/03/22 11:09:06;;;;;;;7.20;5.18;;;16.10;99.90;;;;;;4994476;28;20030;-88
2024/03/22 11:11:37;;;;;;;9.88;4.88;;;15.90;99.90;;;;;;4979593;28;20038;-87
2024/03/22 11:14:05;;;;;;;9.30;6.13;;;16.00;99.90;;;;;;4979300;28;20034;-87
2024/03/22 11:16:31;;;;;;;11.93;5.32;;;16.10;99.90;;;;;;4976140;28;20034;-88
2024/03/22 11:18:56;;;;;;;8.27;5.10;;;16.20;99.90;;;;;;4978781;28;20029;-88
2024/03/22 11:21:23;;;;;;;8.65;5.47;;;16.40;99.90;;;;;;4995273;28;20442;-88
2024/03/22 11:23:48;;;;;;;7.20;5.13;;;16.50;99.90;;;;;;4979387;28;20114;-88
2024/03/22 11:26:14;;;;;;;6.90;4.93;;;16.40;99.90;;;;;;4978889;28;20874;-87
2024/03/22 11:28:40;;;;;;;9.07;4.65;;;16.50;99.90;;;;;;4979443;28;20030;-88
2024/03/22 11:31:05;;;;;;;8.30;4.80;;;16.50;99.90;;;;;;4979211;28;20034;-88
2024/03/22 11:33:31;;;;;;;11.45;4.95;;;16.60;99.90;;;;;;4978695;28;20095;-88
2024/03/22 11:35:59;;;;;;;8.15;5.25;;;16.70;99.90;;;;;;4993838;28;20061;-88
2024/03/22 11:38:27;;;;;;;8.32;4.70;;;16.80;99.90;;;;;;4979632;28;20034;-87
2024/03/22 11:40:54;;;;;;;8.50;5.07;;;16.80;99.90;;;;;;4995102;28;20026;-87
2024/03/22 11:43:20;;;;;;;8.50;4.63;;;16.90;99.90;;;;;;4979891;28;20399;-88
2024/03/22 11:45:45;;;;;;;7.57;4.43;;;17.30;99.90;;;;;;4979649;28;20038;-87
2024/03/22 11:48:11;;;;;;;7.30;4.50;;;17.50;99.90;;;;;;4991258;28;20132;-88
2024/03/22 11:50:40;;;;;;;8.32;5.15;;;17.60;99.90;;;;;;4978331;28;20256;-89
2024/03/22 11:53:06;;;;;;;6.90;4.80;;;17.70;99.90;;;;;;4979815;28;20022;-88
2024/03/22 11:55:31;;;;;;;6.43;4.45;;;17.70;99.90;;;;;;4976787;28;22144;-88
2024/03/22 11:57:58;;;;;;;9.50;5.00;;;17.50;99.90;;;;;;4978743;28;19914;-88
2024/03/22 12:00:25;;;;;;;10.35;4.95;;;17.50;99.90;;;;;;4979023;28;20699;-88
2024/03/22 12:02:51;;;;;;;8.80;5.10;;;17.40;99.90;;;;;;4978267;28;19917;-88
2024/03/22 12:05:17;;;;;;;7.75;4.70;;;17.30;99.90;;;;;;4975671;28;20527;-88
2024/03/22 12:07:44;;;;;;;8.93;4.80;;;17.30;99.90;;;;;;4978759;28;20045;-88
2024/03/22 12:10:10;;;;;;;7.60;4.85;;;17.40;99.90;;;;;;4976199;28;20113;-88
2024/03/22 12:12:36;;;;;;;6.40;4.30;;;17.50;99.90;;;;;;4979175;28;21706;-74
2024/03/22 12:15:02;;;;;;;8.45;4.50;;;17.70;99.90;;;;;;4976345;28;20100;-74
2024/03/22 12:17:28;;;;;;;6.78;4.20;;;17.80;99.90;;;;;;4977116;28;20173;-74
2024/03/22 12:19:53;;;;;;;6.93;4.93;;;17.80;99.90;;;;;;4978457;28;20022;-74
2024/03/22 12:22:19;;;;;;;9.13;4.68;;;17.70;99.90;;;;;;4978497;28;20109;-73
2024/03/22 12:24:46;;;;;;;6.78;4.63;;;17.80;99.90;;;;;;4973734;28;20022;-74
2024/03/22 12:27:11;;;;;;;6.55;4.10;;;17.90;99.90;;;;;;4978105;28;20018;-74
2024/03/22 12:29:36;;;;;;;8.07;4.93;;;17.70;99.90;;;;;;4980725;28;20042;-75
2024/03/22 12:32:06;;;;;;;8.15;4.38;;;17.70;99.90;;;;;;4982879;28;20168;-73